createdAt,value
2018-07-13T00:00:16.785Z,19.31
2018-07-13T00:01:22.680Z,19.28
2018-07-13T00:02:29.887Z,19.16
2018-07-13T00:03:35.849Z,19.21
2018-07-13T00:04:41.820Z,19.23
2018-07-13T00:05:47.795Z,19.25
2018-07-13T00:06:53.756Z,19.14
2018-07-13T00:08:00.614Z,19.12
2018-07-13T00:09:06.940Z,19.13
2018-07-13T00:10:12.896Z,19.11
2018-07-13T00:11:18.524Z,19.31
2018-07-13T00:12:24.816Z,19.44
2018-07-13T00:13:30.727Z,19.29
2018-07-13T00:14:36.740Z,19.35
2018-07-13T00:15:42.101Z,19.44
2018-07-13T00:16:47.779Z,19.54
2018-07-13T00:17:59.340Z,19.45
2018-07-13T00:19:04.672Z,19.35
2018-07-13T00:20:10.301Z,19.16
2018-07-13T00:21:16.250Z,19.33
2018-07-13T00:22:22.252Z,19.32
2018-07-13T00:23:28.461Z,19.30
2018-07-13T00:24:34.676Z,19.14
2018-07-13T00:25:40.626Z,19.13
2018-07-13T00:26:46.603Z,19.21
2018-07-13T00:27:52.832Z,19.20
2018-07-13T00:28:58.869Z,19.20
2018-07-13T00:30:05.553Z,19.21
2018-07-13T00:31:11.780Z,19.03
2018-07-13T00:32:18.032Z,19.11
2018-07-13T00:33:24.248Z,19.27
2018-07-13T00:34:30.490Z,19.32
2018-07-13T00:35:36.711Z,19.31
2018-07-13T00:36:42.961Z,19.16
2018-07-13T00:37:49.830Z,19.03
2018-07-13T00:38:56.091Z,19.18
2018-07-13T00:40:02.317Z,19.24
2018-07-13T00:41:07.956Z,19.25
2018-07-13T00:42:14.026Z,19.00
2018-07-13T00:43:19.932Z,19.07
2018-07-13T00:44:26.810Z,18.99
2018-07-13T00:45:33.105Z,19.08
2018-07-13T00:46:43.673Z,19.21
2018-07-13T00:47:50.260Z,19.24
2018-07-13T00:48:57.157Z,19.23
2018-07-13T00:50:03.450Z,19.10
2018-07-13T00:51:09.090Z,19.10
2018-07-13T00:52:15.042Z,19.03
2018-07-13T00:53:21.301Z,19.04
2018-07-13T00:54:27.533Z,19.19
2018-07-13T00:55:33.768Z,19.09
2018-07-13T00:56:40.028Z,19.09
2018-07-13T00:57:45.961Z,19.09
2018-07-13T00:58:52.213Z,19.03
2018-07-13T00:59:59.623Z,19.07
2018-07-13T01:01:06.350Z,18.98
2018-07-13T01:02:12.671Z,19.00
2018-07-13T01:03:18.999Z,18.91
2018-07-13T01:04:25.243Z,18.86
2018-07-13T01:05:30.965Z,18.76
2018-07-13T01:06:36.912Z,18.69
2018-07-13T01:07:42.904Z,18.71
2018-07-13T01:08:48.859Z,18.83
2018-07-13T01:09:55.119Z,18.86
2018-07-13T01:11:01.060Z,18.77
2018-07-13T01:12:06.976Z,18.73
2018-07-13T01:13:13.227Z,18.87
2018-07-13T01:14:19.155Z,18.99
2018-07-13T01:15:25.097Z,19.03
2018-07-13T01:16:31.320Z,19.06
2018-07-13T01:17:37.602Z,19.08
2018-07-13T01:18:43.852Z,18.95
2018-07-13T01:19:49.810Z,18.93
2018-07-13T01:20:57.433Z,18.98
2018-07-13T01:22:03.664Z,18.98
2018-07-13T01:23:09.632Z,19.05
2018-07-13T01:24:15.894Z,19.10
2018-07-13T01:25:22.124Z,19.07
2018-07-13T01:26:28.064Z,19.08
2018-07-13T01:27:34.054Z,19.02
2018-07-13T01:28:40.305Z,19.12
2018-07-13T01:29:46.591Z,19.16
2018-07-13T01:30:52.791Z,19.06
2018-07-13T01:31:59.020Z,18.99
2018-07-13T01:33:04.964Z,19.04
2018-07-13T01:34:11.224Z,19.02
2018-07-13T01:35:17.108Z,18.95
2018-07-13T01:36:24.492Z,18.80
2018-07-13T01:37:31.436Z,18.86
2018-07-13T01:38:37.668Z,18.77
2018-07-13T01:39:43.941Z,18.78
2018-07-13T01:40:50.179Z,18.81
2018-07-13T01:41:56.449Z,18.73
2018-07-13T01:43:02.727Z,18.61
2018-07-13T01:44:08.942Z,18.74
2018-07-13T01:45:15.199Z,18.71
2018-07-13T01:46:21.486Z,18.65
2018-07-13T01:47:27.724Z,18.63
2018-07-13T01:48:34.005Z,18.75
2018-07-13T01:49:40.215Z,18.79
2018-07-13T01:50:46.445Z,18.76
2018-07-13T01:51:52.499Z,18.71
2018-07-13T01:52:58.813Z,18.85
2018-07-13T01:54:05.108Z,18.63
2018-07-13T01:55:11.038Z,18.55
2018-07-13T01:56:17.272Z,18.58
2018-07-13T01:57:23.530Z,18.54
2018-07-13T01:58:29.766Z,18.33
2018-07-13T01:59:36.031Z,18.29
2018-07-13T02:00:42.365Z,18.29
2018-07-13T02:01:48.323Z,18.44
2018-07-13T02:02:54.625Z,18.49
2018-07-13T02:04:00.895Z,18.49
2018-07-13T02:05:06.224Z,18.40
2018-07-13T02:06:12.119Z,18.36
2018-07-13T02:07:18.331Z,18.51
2018-07-13T02:08:24.566Z,18.53
2018-07-13T02:09:30.820Z,18.52
2018-07-13T02:10:37.103Z,18.35
2018-07-13T02:11:43.060Z,18.43
2018-07-13T02:12:49.888Z,18.38
2018-07-13T02:13:56.924Z,18.36
2018-07-13T02:15:03.164Z,18.45
2018-07-13T02:16:09.427Z,18.42
2018-07-13T02:17:15.491Z,18.37
2018-07-13T02:18:21.825Z,18.40
2018-07-13T02:19:28.060Z,18.45
2018-07-13T02:20:34.312Z,18.41
2018-07-13T02:21:40.560Z,18.28
2018-07-13T02:22:46.783Z,18.33
2018-07-13T02:23:53.032Z,18.31
2018-07-13T02:24:59.230Z,18.20
2018-07-13T02:26:04.839Z,18.21
2018-07-13T02:27:10.820Z,18.35
2018-07-13T02:28:17.430Z,18.24
2018-07-13T02:29:24.176Z,18.25
2018-07-13T02:30:30.437Z,18.26
2018-07-13T02:31:36.674Z,18.21
2018-07-13T02:32:42.658Z,18.23
2018-07-13T02:33:48.957Z,18.09
2018-07-13T02:34:55.419Z,18.14
2018-07-13T02:36:01.700Z,18.01
2018-07-13T02:37:07.938Z,18.02
2018-07-13T02:38:13.941Z,18.04
2018-07-13T02:39:20.199Z,17.98
2018-07-13T02:40:26.603Z,17.96
2018-07-13T02:41:32.851Z,17.85
2018-07-13T02:42:39.112Z,18.06
2018-07-13T02:43:45.367Z,17.96
2018-07-13T02:44:51.582Z,18.03
2018-07-13T02:45:57.832Z,17.93
2018-07-13T02:47:04.176Z,17.81
2018-07-13T02:48:10.178Z,17.93
2018-07-13T02:49:16.441Z,17.98
2018-07-13T02:50:22.310Z,18.13
2018-07-13T02:51:28.615Z,18.11
2018-07-13T02:52:34.879Z,18.15
2018-07-13T02:53:41.136Z,17.95
2018-07-13T02:54:47.349Z,17.87
2018-07-13T02:55:53.592Z,17.98
2018-07-13T02:56:59.806Z,18.08
2018-07-13T02:58:06.044Z,18.11
2018-07-13T02:59:12.343Z,18.09
2018-07-13T03:00:18.574Z,17.91
2018-07-13T03:01:24.804Z,17.82
2018-07-13T03:02:31.007Z,17.85
2018-07-13T03:03:36.987Z,17.77
2018-07-13T03:04:44.237Z,17.59
2018-07-13T03:05:51.355Z,17.65
2018-07-13T03:06:57.668Z,17.64
2018-07-13T03:08:03.888Z,17.71
2018-07-13T03:09:09.539Z,17.76
2018-07-13T03:10:15.804Z,17.92
2018-07-13T03:11:21.776Z,17.88
2018-07-13T03:12:28.065Z,17.94
2018-07-13T03:13:34.355Z,17.78
2018-07-13T03:14:40.332Z,17.88
2018-07-13T03:15:46.799Z,17.88
2018-07-13T03:16:53.114Z,17.67
2018-07-13T03:17:59.430Z,17.60
2018-07-13T03:19:05.715Z,17.75
2018-07-13T03:20:11.951Z,17.76
2018-07-13T03:21:17.910Z,17.71
2018-07-13T03:22:23.853Z,17.72
2018-07-13T03:23:30.078Z,17.91
2018-07-13T03:24:36.360Z,17.89
2018-07-13T03:25:42.597Z,17.85
2018-07-13T03:26:48.822Z,17.88
2018-07-13T03:27:55.023Z,17.89
2018-07-13T03:29:01.267Z,17.88
2018-07-13T03:30:07.161Z,17.76
2018-07-13T03:31:13.426Z,17.80
2018-07-13T03:32:19.418Z,17.76
2018-07-13T03:33:25.647Z,17.79
2018-07-13T03:34:31.923Z,17.81
2018-07-13T03:35:37.916Z,17.78
2018-07-13T03:36:44.124Z,17.78
2018-07-13T03:37:50.343Z,17.82
2018-07-13T03:38:56.435Z,17.94
2018-07-13T03:40:02.740Z,17.61
2018-07-13T03:41:10.047Z,17.71
2018-07-13T03:42:17.199Z,17.70
2018-07-13T03:43:23.479Z,17.76
2018-07-13T03:44:29.735Z,17.76
2018-07-13T03:45:35.978Z,17.68
2018-07-13T03:46:41.969Z,17.83
2018-07-13T03:47:48.221Z,17.78
2018-07-13T03:48:54.466Z,17.74
2018-07-13T03:50:00.756Z,17.84
2018-07-13T03:51:07.658Z,17.87
2018-07-13T03:52:13.852Z,17.69
2018-07-13T03:53:20.134Z,17.61
2018-07-13T03:54:26.436Z,17.81
2018-07-13T03:55:32.312Z,17.72
2018-07-13T03:56:39.002Z,17.77
2018-07-13T03:57:46.008Z,17.66
2018-07-13T03:58:52.267Z,17.86
2018-07-13T03:59:58.567Z,17.80
2018-07-13T04:01:04.408Z,17.80
2018-07-13T04:02:10.652Z,17.90
2018-07-13T04:03:16.262Z,17.79
2018-07-13T04:04:22.160Z,17.76
2018-07-13T04:05:28.384Z,17.74
2018-07-13T04:06:34.416Z,17.61
2018-07-13T04:07:40.483Z,17.82
2018-07-13T04:08:46.729Z,17.90
2018-07-13T04:09:53.019Z,17.70
2018-07-13T04:10:59.261Z,17.75
2018-07-13T04:12:05.500Z,17.83
2018-07-13T04:13:11.357Z,17.76
2018-07-13T04:14:17.635Z,17.83
2018-07-13T04:15:23.537Z,17.74
2018-07-13T04:16:29.762Z,17.84
2018-07-13T04:17:36.392Z,17.97
2018-07-13T04:18:42.690Z,18.01
2018-07-13T04:19:48.957Z,17.81
2018-07-13T04:20:54.604Z,17.75
2018-07-13T04:22:00.921Z,17.80
2018-07-13T04:23:06.823Z,17.84
2018-07-13T04:24:12.445Z,17.93
2018-07-13T04:25:18.024Z,17.94
2018-07-13T04:26:23.862Z,17.97
2018-07-13T04:27:29.135Z,17.91
2018-07-13T04:28:34.702Z,18.07
2018-07-13T04:29:40.644Z,18.17
2018-07-13T04:30:46.214Z,18.11
2018-07-13T04:31:52.428Z,18.24
2018-07-13T04:32:58.680Z,18.17
2018-07-13T04:34:05.086Z,18.17
2018-07-13T04:35:11.340Z,17.95
2018-07-13T04:36:17.555Z,18.12
2018-07-13T04:37:23.805Z,18.06
2018-07-13T04:38:30.077Z,18.31
2018-07-13T04:39:36.331Z,18.42
2018-07-13T04:40:42.607Z,18.38
2018-07-13T04:41:48.857Z,18.39
2018-07-13T04:42:55.104Z,18.41
2018-07-13T04:44:01.138Z,18.39
2018-07-13T04:45:06.695Z,18.29
2018-07-13T04:46:12.244Z,18.38
2018-07-13T04:47:17.803Z,18.47
2018-07-13T04:48:23.360Z,18.61
2018-07-13T04:49:28.951Z,18.66
2018-07-13T04:50:34.524Z,18.77
2018-07-13T04:51:40.060Z,18.74
2018-07-13T04:52:45.610Z,18.54
2018-07-13T04:53:52.770Z,18.56
2018-07-13T04:54:59.067Z,18.71
2018-07-13T04:56:04.628Z,18.63
2018-07-13T04:57:10.852Z,18.76
2018-07-13T04:58:16.384Z,18.52
2018-07-13T04:59:21.923Z,18.73
2018-07-13T05:00:27.261Z,18.85
2018-07-13T05:01:32.815Z,18.87
2018-07-13T05:02:38.356Z,18.91
2018-07-13T05:03:43.922Z,18.82
2018-07-13T05:04:49.476Z,18.55
2018-07-13T05:05:55.342Z,18.67
2018-07-13T05:07:00.650Z,18.76
2018-07-13T05:08:06.249Z,18.92
2018-07-13T05:09:11.850Z,18.99
2018-07-13T05:10:17.730Z,19.13
2018-07-13T05:11:23.679Z,19.22
2018-07-13T05:12:29.553Z,19.30
2018-07-13T05:13:35.436Z,19.21
2018-07-13T05:14:42.260Z,19.11
2018-07-13T05:15:48.505Z,19.02
2018-07-13T05:16:54.722Z,18.96
2018-07-13T05:18:00.633Z,18.95
2018-07-13T05:19:06.991Z,19.09
2018-07-13T05:20:12.899Z,19.16
2018-07-13T05:21:18.447Z,19.18
2018-07-13T05:22:24.168Z,19.32
2018-07-13T05:23:29.715Z,19.37
2018-07-13T05:24:34.976Z,19.27
2018-07-13T05:25:41.508Z,19.13
2018-07-13T05:26:47.029Z,19.25
2018-07-13T05:27:52.547Z,19.25
2018-07-13T05:28:58.068Z,19.30
2018-07-13T05:30:03.363Z,19.30
2018-07-13T05:31:08.944Z,19.29
2018-07-13T05:32:14.219Z,19.36
2018-07-13T05:33:19.740Z,19.20
2018-07-13T05:34:25.273Z,19.04
2018-07-13T05:35:31.359Z,19.16
2018-07-13T05:36:36.622Z,19.35
2018-07-13T05:37:42.148Z,19.40
2018-07-13T05:38:47.708Z,19.40
2018-07-13T05:39:53.263Z,19.44
2018-07-13T05:40:58.806Z,19.40
2018-07-13T05:42:04.692Z,19.18
2018-07-13T05:43:10.953Z,19.33
2018-07-13T05:44:16.764Z,19.27
2018-07-13T05:45:22.390Z,19.10
2018-07-13T05:46:27.887Z,19.12
2018-07-13T05:47:33.407Z,19.17
2018-07-13T05:48:38.946Z,19.24
2018-07-13T05:49:44.252Z,19.45
2018-07-13T05:50:50.056Z,19.56
2018-07-13T05:51:56.960Z,19.55
2018-07-13T05:53:02.211Z,19.65
2018-07-13T05:54:07.800Z,19.70
2018-07-13T05:55:13.363Z,19.72
2018-07-13T05:56:19.267Z,19.57
2018-07-13T05:57:24.816Z,19.58
2018-07-13T05:58:30.078Z,19.70
2018-07-13T05:59:35.390Z,19.86
2018-07-13T06:00:41.307Z,19.78
2018-07-13T06:01:46.649Z,19.65
2018-07-13T06:02:52.200Z,19.52
2018-07-13T06:03:57.477Z,19.36
2018-07-13T06:05:03.315Z,19.41
2018-07-13T06:06:08.935Z,19.45
2018-07-13T06:07:14.636Z,19.72
2018-07-13T06:08:20.007Z,20.01
2018-07-13T06:09:25.646Z,20.14
2018-07-13T06:10:31.344Z,20.22
2018-07-13T06:11:36.909Z,19.99
2018-07-13T06:12:42.436Z,20.10
2018-07-13T06:13:48.094Z,20.26
2018-07-13T06:14:53.986Z,20.31
2018-07-13T06:15:59.752Z,20.27
2018-07-13T06:17:07.266Z,20.29
2018-07-13T06:18:13.671Z,20.34
2018-07-13T06:19:19.948Z,20.27
2018-07-13T06:20:25.876Z,20.32
2018-07-13T06:21:32.117Z,20.30
2018-07-13T06:22:38.054Z,20.14
2018-07-13T06:23:44.277Z,20.15
2018-07-13T06:24:50.564Z,20.28
2018-07-13T06:25:56.544Z,20.23
2018-07-13T06:27:02.395Z,20.33
2018-07-13T06:28:08.281Z,20.33
2018-07-13T06:29:14.249Z,20.40
2018-07-13T06:30:20.240Z,20.46
2018-07-13T06:31:26.350Z,20.45
2018-07-13T06:32:33.008Z,20.13
2018-07-13T06:33:39.645Z,20.03
2018-07-13T06:34:45.529Z,20.26
2018-07-13T06:35:51.544Z,20.37
2018-07-13T06:36:56.804Z,20.34
2018-07-13T06:38:02.340Z,20.26
2018-07-13T06:39:09.788Z,20.05
2018-07-13T06:40:16.003Z,19.99
2018-07-13T06:41:21.576Z,20.12
2018-07-13T06:42:27.599Z,20.22
2018-07-13T06:43:32.876Z,20.38
2018-07-13T06:44:38.455Z,20.29
2018-07-13T06:45:44.107Z,20.26
2018-07-13T06:46:50.123Z,20.21
2018-07-13T06:47:55.693Z,20.30
2018-07-13T06:49:01.275Z,20.49
2018-07-13T06:51:10.712Z,20.15
2018-07-13T06:52:16.208Z,20.22
2018-07-13T06:53:22.651Z,20.52
2018-07-13T06:54:28.859Z,20.45
2018-07-13T06:55:34.761Z,20.57
2018-07-13T06:56:41.043Z,20.38
2018-07-13T06:59:36.223Z,20.68
2018-07-13T07:00:41.756Z,20.81
2018-07-13T07:01:47.418Z,20.97
2018-07-13T07:02:53.304Z,21.05
2018-07-13T07:04:00.407Z,21.15
2018-07-13T07:05:05.737Z,21.00
2018-07-13T07:06:10.790Z,21.08
2018-07-13T07:07:15.746Z,21.16
2018-07-13T07:08:20.714Z,21.22
2018-07-13T07:09:25.704Z,21.27
2018-07-13T07:10:31.373Z,21.32
2018-07-13T07:11:36.552Z,21.19
2018-07-13T07:12:41.535Z,21.27
2018-07-13T07:13:46.570Z,21.17
2018-07-13T07:14:52.583Z,21.16
2018-07-13T07:15:58.502Z,21.25
2018-07-13T07:17:04.777Z,21.27
2018-07-13T07:18:10.669Z,21.52
2018-07-13T07:19:16.988Z,21.47
2018-07-13T07:20:22.690Z,21.45
2018-07-13T07:21:28.336Z,21.41
2018-07-13T07:22:34.588Z,21.60
2018-07-13T07:23:40.463Z,21.83
2018-07-13T07:24:46.688Z,22.03
2018-07-13T07:25:52.227Z,22.02
2018-07-13T07:26:57.575Z,21.68
2018-07-13T07:28:03.805Z,21.63
2018-07-13T07:29:10.048Z,21.67
2018-07-13T07:30:15.923Z,21.80
2018-07-13T07:31:21.488Z,22.08
2018-07-13T07:32:27.749Z,22.30
2018-07-13T07:33:33.988Z,22.01
2018-07-13T07:34:40.252Z,22.24
2018-07-13T07:35:46.235Z,22.33
2018-07-13T07:36:52.514Z,22.60
2018-07-13T07:37:58.476Z,22.57
2018-07-13T07:39:03.811Z,22.63
2018-07-13T07:40:10.807Z,22.68
2018-07-13T07:41:16.792Z,22.72
2018-07-13T07:42:22.705Z,22.85
2018-07-13T07:43:28.302Z,22.87
2018-07-13T07:44:33.619Z,22.99
2018-07-13T07:45:39.241Z,23.12
2018-07-13T07:46:45.524Z,23.08
2018-07-13T07:47:51.490Z,23.22
2018-07-13T07:48:57.725Z,23.26
2018-07-13T07:50:03.305Z,23.32
2018-07-13T07:51:09.458Z,23.32
2018-07-13T07:52:15.726Z,23.21
2018-07-13T07:53:21.959Z,22.95
2018-07-13T07:54:27.856Z,22.74
2018-07-13T07:55:33.776Z,22.66
2018-07-13T07:56:40.064Z,22.78
2018-07-13T07:57:46.286Z,23.03
2018-07-13T07:58:52.589Z,23.29
2018-07-13T07:59:58.820Z,23.33
2018-07-13T08:01:05.020Z,23.35
2018-07-13T08:02:10.648Z,23.30
2018-07-13T08:03:16.867Z,23.47
2018-07-13T08:04:23.115Z,23.51
2018-07-13T08:05:29.132Z,23.65
2018-07-13T08:06:35.503Z,23.62
2018-07-13T08:07:41.909Z,23.50
2018-07-13T08:08:48.326Z,23.48
2018-07-13T08:09:54.612Z,23.76
2018-07-13T08:11:00.852Z,23.95
2018-07-13T08:12:07.143Z,23.92
2018-07-13T08:13:13.429Z,23.75
2018-07-13T08:14:19.766Z,23.31
2018-07-13T08:15:26.117Z,23.32
2018-07-13T08:16:32.976Z,23.40
2018-07-13T08:17:39.266Z,23.66
2018-07-13T08:18:45.489Z,23.97
2018-07-13T08:19:51.023Z,23.94
2018-07-13T08:21:02.512Z,23.92
2018-07-13T08:22:07.800Z,23.55
2018-07-13T08:23:13.308Z,23.87
2018-07-13T08:24:18.600Z,23.98
2018-07-13T08:25:23.945Z,24.10
2018-07-13T08:26:29.205Z,24.19
2018-07-13T08:27:34.484Z,24.28
2018-07-13T08:28:39.740Z,24.43
2018-07-13T08:29:45.014Z,24.61
2018-07-13T08:30:50.292Z,24.66
2018-07-13T08:31:56.294Z,24.67
2018-07-13T08:33:02.555Z,24.66
2018-07-13T08:34:08.819Z,24.63
2018-07-13T08:35:14.921Z,24.60
2018-07-13T08:36:20.809Z,24.30
2018-07-13T08:37:26.735Z,24.36
2018-07-13T08:38:32.700Z,24.51
2018-07-13T08:39:38.665Z,24.56
2018-07-13T08:40:44.201Z,24.62
2018-07-13T08:41:50.077Z,24.45
2018-07-13T08:42:55.668Z,24.66
2018-07-13T08:44:01.028Z,24.77
2018-07-13T08:45:07.138Z,24.90
2018-07-13T08:46:13.028Z,24.96
2018-07-13T08:47:18.620Z,24.95
2018-07-13T08:48:24.159Z,24.92
2018-07-13T08:49:30.065Z,24.85
2018-07-13T08:50:35.335Z,24.99
2018-07-13T08:51:40.957Z,25.12
2018-07-13T08:52:46.903Z,25.25
2018-07-13T08:53:53.219Z,25.25
2018-07-13T08:54:58.761Z,25.08
2018-07-13T08:56:04.067Z,25.13
2018-07-13T08:57:09.827Z,24.88
2018-07-13T08:58:15.069Z,24.98
2018-07-13T08:59:20.627Z,25.07
2018-07-13T09:00:25.710Z,25.27
2018-07-13T09:01:31.686Z,25.38
2018-07-13T09:02:37.208Z,25.18
2018-07-13T09:03:42.460Z,25.15
2018-07-13T09:04:48.020Z,25.34
2018-07-13T09:05:54.192Z,25.25
2018-07-13T09:06:59.932Z,25.33
2018-07-13T09:08:05.881Z,25.44
2018-07-13T09:09:10.864Z,25.37
2018-07-13T09:10:16.429Z,25.30
2018-07-13T09:11:21.685Z,25.35
2018-07-13T09:12:26.947Z,25.52
2018-07-13T09:13:32.535Z,25.79
2018-07-13T09:14:37.764Z,25.49
2018-07-13T09:15:43.017Z,25.51
2018-07-13T09:16:48.898Z,25.42
2018-07-13T09:17:54.556Z,25.52
2018-07-13T09:19:00.648Z,25.57
2018-07-13T09:20:05.885Z,25.69
2018-07-13T09:21:11.463Z,25.80
2018-07-13T09:22:17.720Z,25.75
2018-07-13T09:23:23.357Z,25.74
2018-07-13T09:24:29.280Z,25.85
2018-07-13T09:25:34.907Z,25.93
2018-07-13T09:26:40.849Z,25.69
2018-07-13T09:27:46.451Z,25.46
2018-07-13T09:28:52.033Z,25.62
2018-07-13T09:29:57.989Z,25.84
2018-07-13T09:31:03.280Z,25.83
2018-07-13T09:32:08.251Z,25.75
2018-07-13T09:33:14.230Z,25.73
2018-07-13T09:34:19.201Z,25.45
2018-07-13T09:35:24.861Z,25.36
2018-07-13T09:36:30.804Z,25.15
2018-07-13T09:37:36.095Z,25.10
2018-07-13T09:38:42.038Z,25.23
2018-07-13T09:39:47.939Z,25.29
2018-07-13T09:40:53.223Z,25.49
2018-07-13T09:41:58.976Z,25.61
2018-07-13T09:43:05.194Z,25.48
2018-07-13T09:44:10.870Z,25.57
2018-07-13T09:45:16.854Z,25.57
2018-07-13T09:46:22.070Z,25.61
2018-07-13T09:47:27.689Z,25.71
2018-07-13T09:48:33.387Z,25.98
2018-07-13T09:49:38.642Z,25.93
2018-07-13T09:50:44.230Z,26.19
2018-07-13T09:51:49.462Z,26.31
2018-07-13T09:52:55.407Z,26.52
2018-07-13T09:54:00.774Z,26.44
2018-07-13T09:55:06.172Z,26.08
2018-07-13T09:56:13.003Z,25.95
2018-07-13T09:57:18.935Z,26.16
2018-07-13T09:58:24.227Z,26.06
2018-07-13T09:59:29.640Z,25.88
2018-07-13T10:00:34.836Z,25.96
2018-07-13T10:01:39.964Z,26.17
2018-07-13T10:02:45.220Z,26.25
2018-07-13T10:03:50.489Z,26.47
2018-07-13T10:04:55.733Z,26.48
2018-07-13T10:06:00.959Z,26.31
2018-07-13T10:07:06.576Z,26.65
2018-07-13T10:08:11.815Z,26.60
2018-07-13T10:09:17.734Z,26.41
2018-07-13T10:10:23.059Z,26.23
2018-07-13T10:11:29.014Z,26.34
2018-07-13T10:12:33.970Z,26.66
2018-07-13T10:13:39.234Z,26.50
2018-07-13T10:14:44.530Z,26.70
2018-07-13T10:15:50.375Z,26.57
2018-07-13T10:16:55.349Z,26.31
2018-07-13T10:18:00.346Z,26.10
2018-07-13T10:19:05.360Z,26.18
2018-07-13T10:20:10.685Z,26.10
2018-07-13T10:21:16.707Z,26.26
2018-07-13T10:22:22.053Z,26.33
2018-07-13T10:23:27.042Z,26.50
2018-07-13T10:24:32.019Z,26.62
2018-07-13T10:25:36.963Z,26.69
2018-07-13T10:26:42.199Z,26.53
2018-07-13T10:27:47.191Z,26.37
2018-07-13T10:28:52.451Z,26.43
2018-07-13T10:29:57.421Z,26.24
2018-07-13T10:31:02.745Z,26.29
2018-07-13T10:32:07.780Z,26.47
2018-07-13T10:33:12.817Z,26.56
2018-07-13T10:34:17.818Z,26.67
2018-07-13T10:35:22.806Z,26.62
2018-07-13T10:36:28.089Z,26.58
2018-07-13T10:37:33.058Z,26.77
2018-07-13T10:38:38.763Z,26.73
2018-07-13T10:39:44.688Z,26.54
2018-07-13T10:40:50.306Z,26.52
2018-07-13T10:41:56.716Z,26.73
2018-07-13T10:43:02.358Z,26.76
2018-07-13T10:44:08.331Z,26.57
2018-07-13T10:45:14.284Z,26.30
2018-07-13T10:46:19.507Z,26.62
2018-07-13T10:47:25.124Z,26.92
2018-07-13T10:48:30.501Z,26.59
2018-07-13T10:49:36.474Z,26.55
2018-07-13T10:50:42.440Z,26.65
2018-07-13T10:51:48.059Z,26.97
2018-07-13T10:52:54.277Z,27.32
2018-07-13T10:54:00.296Z,27.12
2018-07-13T10:55:05.683Z,27.15
2018-07-13T10:56:11.673Z,26.64
2018-07-13T10:57:17.593Z,26.77
2018-07-13T10:58:23.616Z,27.10
2018-07-13T10:59:29.584Z,27.04
2018-07-13T11:00:35.540Z,27.00
2018-07-13T11:01:41.484Z,27.01
2018-07-13T11:02:48.520Z,27.24
2018-07-13T11:03:55.258Z,27.34
2018-07-13T11:05:01.199Z,27.43
2018-07-13T11:06:06.870Z,27.39
2018-07-13T11:07:12.815Z,27.44
2018-07-13T11:08:18.756Z,27.26
2018-07-13T11:09:24.710Z,27.12
2018-07-13T11:10:30.655Z,27.10
2018-07-13T11:11:36.598Z,26.98
2018-07-13T11:12:42.549Z,27.28
2018-07-13T11:13:48.522Z,27.42
2018-07-13T11:14:54.710Z,27.22
2018-07-13T11:16:00.880Z,27.22
2018-07-13T11:17:06.808Z,27.22
2018-07-13T11:18:12.855Z,27.37
2018-07-13T11:19:19.067Z,27.32
2018-07-13T11:20:24.994Z,27.03
2018-07-13T11:21:30.925Z,27.01
2018-07-13T11:22:36.868Z,26.84
2018-07-13T11:23:42.590Z,27.04
2018-07-13T11:24:48.562Z,27.38
2018-07-13T11:25:54.485Z,27.58
2018-07-13T11:27:00.433Z,27.51
2018-07-13T11:28:06.372Z,27.53
2018-07-13T11:29:12.377Z,27.75
2018-07-13T11:30:18.081Z,27.96
2018-07-13T11:31:23.742Z,27.75
2018-07-13T11:32:29.780Z,28.03
2018-07-13T11:33:35.726Z,27.96
2018-07-13T11:34:41.712Z,27.58
2018-07-13T11:35:47.631Z,27.67
2018-07-13T11:36:53.685Z,27.70
2018-07-13T11:37:59.739Z,27.73
2018-07-13T11:39:05.572Z,27.52
2018-07-13T11:40:11.907Z,27.51
2018-07-13T11:41:17.845Z,27.61
2018-07-13T11:42:23.492Z,27.64
2018-07-13T11:43:29.470Z,27.48
2018-07-13T11:44:35.433Z,27.42
2018-07-13T11:45:41.007Z,27.26
2018-07-13T11:46:46.960Z,27.44
2018-07-13T11:47:52.607Z,27.54
2018-07-13T11:48:58.564Z,27.58
2018-07-13T11:50:03.841Z,27.17
2018-07-13T11:51:09.464Z,27.08
2018-07-13T11:52:15.460Z,27.35
2018-07-13T11:53:21.457Z,27.45
2018-07-13T11:54:27.439Z,27.74
2018-07-13T11:55:33.430Z,27.28
2018-07-13T11:56:39.384Z,27.43
2018-07-13T11:57:44.947Z,27.79
2018-07-13T11:58:50.916Z,27.91
2018-07-13T11:59:57.602Z,27.64
2018-07-13T12:01:04.058Z,27.47
2018-07-13T12:02:10.023Z,27.36
2018-07-13T12:03:15.983Z,27.08
2018-07-13T12:04:21.941Z,27.33
2018-07-13T12:05:27.879Z,27.39
2018-07-13T12:06:33.807Z,27.20
2018-07-13T12:07:39.800Z,27.18
2018-07-13T12:08:45.912Z,27.48
2018-07-13T12:09:51.905Z,27.54
2018-07-13T12:10:57.847Z,27.65
2018-07-13T12:12:03.767Z,27.82
2018-07-13T12:13:09.692Z,28.12
2018-07-13T12:14:15.677Z,28.20
2018-07-13T12:15:21.660Z,28.10
2018-07-13T12:16:27.646Z,27.93
2018-07-13T12:17:33.903Z,27.56
2018-07-13T12:18:39.965Z,27.46
2018-07-13T12:19:46.182Z,27.49
2018-07-13T12:20:52.307Z,27.23
2018-07-13T12:21:58.268Z,27.12
2018-07-13T12:23:04.250Z,26.94
2018-07-13T12:24:09.972Z,26.86
2018-07-13T12:25:15.964Z,27.15
2018-07-13T12:26:21.911Z,27.12
2018-07-13T12:27:27.860Z,26.94
2018-07-13T12:28:33.807Z,26.87
2018-07-13T12:29:39.824Z,27.11
2018-07-13T12:30:45.771Z,27.26
2018-07-13T12:31:51.691Z,27.34
2018-07-13T12:32:57.611Z,26.90
2018-07-13T12:34:03.555Z,26.99
2018-07-13T12:35:09.540Z,26.95
2018-07-13T12:36:15.931Z,27.27
2018-07-13T12:37:22.631Z,27.48
2018-07-13T12:38:28.592Z,27.61
2018-07-13T12:39:34.581Z,27.68
2018-07-13T12:40:40.508Z,27.57
2018-07-13T12:41:46.357Z,27.45
2018-07-13T12:42:52.287Z,27.50
2018-07-13T12:43:58.207Z,27.58
2018-07-13T12:45:03.805Z,27.51
2018-07-13T12:46:09.826Z,27.84
2018-07-13T12:47:15.936Z,27.59
2018-07-13T12:48:21.873Z,27.90
2018-07-13T12:49:27.857Z,28.06
2018-07-13T12:50:33.491Z,28.06
2018-07-13T12:51:39.471Z,28.12
2018-07-13T12:52:45.439Z,28.21
2018-07-13T12:53:51.412Z,28.28
2018-07-13T12:54:57.604Z,28.21
2018-07-13T12:56:03.543Z,28.05
2018-07-13T12:57:10.207Z,27.97
2018-07-13T12:58:16.183Z,28.08
2018-07-13T12:59:22.174Z,27.58
2018-07-13T13:00:28.323Z,27.29
2018-07-13T13:01:33.952Z,27.47
2018-07-13T13:02:39.903Z,27.52
2018-07-13T13:03:45.888Z,27.61
2018-07-13T13:04:52.036Z,27.60
2018-07-13T13:05:58.015Z,27.12
2018-07-13T13:07:03.619Z,27.20
2018-07-13T13:08:09.623Z,27.20
2018-07-13T13:09:15.596Z,27.15
2018-07-13T13:10:21.566Z,27.04
2018-07-13T13:11:28.012Z,27.25
2018-07-13T13:12:34.563Z,27.44
2018-07-13T13:13:40.520Z,27.27
2018-07-13T13:14:46.246Z,27.53
2018-07-13T13:15:52.210Z,27.77
2018-07-13T13:16:58.192Z,27.85
2018-07-13T13:18:03.770Z,28.08
2018-07-13T13:19:09.769Z,27.90
2018-07-13T13:20:15.457Z,28.28
2018-07-13T13:21:21.397Z,28.52
2018-07-13T13:22:27.341Z,28.49
2018-07-13T13:23:33.291Z,28.36
2018-07-13T13:24:38.869Z,28.12
2018-07-13T13:25:44.827Z,28.24
2018-07-13T13:26:50.451Z,28.37
2018-07-13T13:27:56.438Z,28.42
2018-07-13T13:29:02.368Z,28.35
2018-07-13T13:30:08.312Z,28.32
2018-07-13T13:31:14.280Z,28.23
2018-07-13T13:32:20.301Z,28.16
2018-07-13T13:33:26.364Z,28.14
2018-07-13T13:34:32.903Z,28.20
2018-07-13T13:35:38.911Z,28.55
2018-07-13T13:36:45.047Z,28.20
2018-07-13T13:37:50.344Z,28.29
2018-07-13T13:38:56.259Z,28.49
2018-07-13T13:40:02.186Z,28.19
2018-07-13T13:41:07.872Z,28.41
2018-07-13T13:42:13.845Z,28.29
2018-07-13T13:43:19.778Z,28.18
2018-07-13T13:44:25.711Z,28.31
2018-07-13T13:45:31.648Z,28.40
2018-07-13T13:46:37.591Z,28.18
2018-07-13T13:47:43.560Z,27.98
2018-07-13T13:48:49.478Z,27.95
2018-07-13T13:49:55.433Z,27.86
2018-07-13T13:51:01.367Z,27.92
2018-07-13T13:52:07.370Z,28.17
2018-07-13T13:53:13.291Z,28.26
2018-07-13T13:54:19.475Z,28.50
2018-07-13T13:55:25.400Z,28.36
2018-07-13T13:56:31.021Z,28.24
2018-07-13T13:57:36.945Z,28.39
2018-07-13T13:58:43.139Z,28.28
2018-07-13T13:59:48.744Z,28.32
2018-07-13T14:00:54.900Z,27.96
2018-07-13T14:02:00.843Z,28.15
2018-07-13T14:03:06.185Z,28.10
2018-07-13T14:04:12.115Z,28.07
2018-07-13T14:05:18.120Z,28.12
2018-07-13T14:06:24.207Z,28.47
2018-07-13T14:07:30.166Z,28.29
2018-07-13T14:08:36.121Z,28.30
2018-07-13T14:09:42.512Z,28.64
2018-07-13T14:10:48.579Z,28.29
2018-07-13T14:11:54.630Z,28.45